createdAt,value
2023-03-14T00:02:27.449Z,22.55
2023-03-14T00:04:58.518Z,24.50
2023-03-14T00:07:35.922Z,36.95
2023-03-14T00:10:14.470Z,21.80
2023-03-14T00:12:45.620Z,23.52
2023-03-14T00:15:16.197Z,41.58
2023-03-14T00:17:47.200Z,25.98
2023-03-14T00:20:17.591Z,31.13
2023-03-14T00:22:47.941Z,32.00
2023-03-14T00:25:18.832Z,23.77
2023-03-14T00:27:49.663Z,27.42
2023-03-14T00:30:20.718Z,20.92
2023-03-14T00:32:51.849Z,22.48
2023-03-14T00:35:23.458Z,27.00
2023-03-14T00:37:54.008Z,18.95
2023-03-14T00:40:24.719Z,21.25
2023-03-14T00:42:55.560Z,20.63
2023-03-14T00:45:26.281Z,21.85
2023-03-14T00:47:56.697Z,18.45
2023-03-14T00:50:31.361Z,21.88
2023-03-14T00:53:02.039Z,24.08
2023-03-14T00:55:32.541Z,24.58
2023-03-14T00:58:02.921Z,21.92
2023-03-14T01:00:33.951Z,21.20
2023-03-14T01:03:07.254Z,22.42
2023-03-14T01:05:38.016Z,18.13
2023-03-14T01:08:09.859Z,21.90
2023-03-14T01:10:42.554Z,21.75
2023-03-14T01:13:13.623Z,25.63
2023-03-14T01:15:44.469Z,16.83
2023-03-14T01:18:15.402Z,21.95
2023-03-14T01:20:46.482Z,19.45
2023-03-14T01:23:17.681Z,25.15
2023-03-14T01:25:48.211Z,24.95
2023-03-14T01:28:20.379Z,23.50
2023-03-14T01:30:51.267Z,20.80
2023-03-14T01:33:22.493Z,19.08
2023-03-14T01:35:53.183Z,23.88
2023-03-14T01:38:26.839Z,23.42
2023-03-14T01:40:58.047Z,21.58
2023-03-14T01:43:28.793Z,19.33
2023-03-14T01:46:08.794Z,20.42
2023-03-14T01:48:53.759Z,16.27
2023-03-14T01:51:26.862Z,18.25
2023-03-14T01:54:09.399Z,18.92
2023-03-14T01:56:41.503Z,22.67
2023-03-14T01:59:13.653Z,16.92
2023-03-14T02:01:47.854Z,17.63
2023-03-14T02:04:20.365Z,14.20
2023-03-14T02:07:32.336Z,15.48
2023-03-14T02:10:13.769Z,22.25
2023-03-14T02:12:45.535Z,21.92
2023-03-14T02:15:43.364Z,20.83
2023-03-14T02:18:46.798Z,19.40
2023-03-14T02:21:53.052Z,23.23
2023-03-14T02:24:41.682Z,26.35
2023-03-14T02:27:19.346Z,19.58
2023-03-14T02:30:12.895Z,19.52
2023-03-14T02:32:57.803Z,18.10
2023-03-14T02:35:30.876Z,22.52
2023-03-14T02:38:23.650Z,24.95
2023-03-14T02:40:54.740Z,20.50
2023-03-14T02:43:26.262Z,23.23
2023-03-14T02:46:03.760Z,22.85
2023-03-14T02:48:44.572Z,21.52
2023-03-14T02:51:16.973Z,21.73
2023-03-14T02:53:51.240Z,25.20
2023-03-14T02:56:23.689Z,20.33
2023-03-14T02:58:57.170Z,20.90
2023-03-14T03:01:38.099Z,29.83
2023-03-14T03:04:09.262Z,24.42
2023-03-14T03:06:40.614Z,27.23
2023-03-14T03:09:11.680Z,25.05
2023-03-14T03:11:42.597Z,27.25
2023-03-14T03:14:18.471Z,28.13
2023-03-14T03:16:49.284Z,22.38
2023-03-14T03:19:21.017Z,27.48
2023-03-14T03:21:54.747Z,26.50
2023-03-14T03:24:25.107Z,28.17
2023-03-14T03:26:55.993Z,26.60
2023-03-14T03:29:26.942Z,27.95
2023-03-14T03:31:58.002Z,31.08
2023-03-14T03:34:30.101Z,26.27
2023-03-14T03:37:01.681Z,25.58
2023-03-14T03:39:35.920Z,32.50
2023-03-14T03:42:07.581Z,34.03
2023-03-14T03:44:41.425Z,27.05
2023-03-14T03:47:13.073Z,27.42
2023-03-14T03:49:43.497Z,24.05
2023-03-14T03:52:15.672Z,26.50
2023-03-14T03:54:46.992Z,25.10
2023-03-14T03:57:18.572Z,35.50
2023-03-14T03:59:49.040Z,33.35
2023-03-14T04:02:19.696Z,29.92
2023-03-14T04:04:51.495Z,30.35
2023-03-14T04:07:22.860Z,23.63
2023-03-14T04:09:54.094Z,25.10
2023-03-14T04:12:41.396Z,32.17
2023-03-14T04:15:19.984Z,28.80
2023-03-14T04:17:59.963Z,33.33
2023-03-14T04:20:30.577Z,29.02
2023-03-14T04:23:01.032Z,30.50
2023-03-14T04:25:31.875Z,31.25
2023-03-14T04:28:06.300Z,36.47
2023-03-14T04:30:39.532Z,32.47
2023-03-14T04:33:19.123Z,29.77
2023-03-14T04:35:57.536Z,28.85
2023-03-14T04:38:28.382Z,26.92
2023-03-14T04:41:01.069Z,22.88
2023-03-14T04:43:35.860Z,27.60
2023-03-14T04:46:10.160Z,22.52
2023-03-14T04:48:40.801Z,22.10
2023-03-14T04:51:11.877Z,21.08
2023-03-14T04:53:43.373Z,20.20
2023-03-14T04:56:16.028Z,22.05
2023-03-14T04:58:47.563Z,20.30
2023-03-14T05:01:22.149Z,26.02
2023-03-14T05:04:11.921Z,22.90
2023-03-14T05:07:00.617Z,20.33
2023-03-14T05:09:51.971Z,17.42
2023-03-14T05:12:48.571Z,16.15
2023-03-14T05:15:52.520Z,21.20
2023-03-14T05:18:45.690Z,19.10
2023-03-14T05:21:39.247Z,24.50
2023-03-14T05:24:31.027Z,21.35
2023-03-14T05:27:05.638Z,16.23
2023-03-14T05:29:54.534Z,19.38
2023-03-14T05:32:39.164Z,23.20
2023-03-14T05:35:32.623Z,23.75
2023-03-14T05:38:33.226Z,20.67
2023-03-14T05:41:24.351Z,17.65
2023-03-14T05:44:19.355Z,23.00
2023-03-14T05:47:22.206Z,18.35
2023-03-14T05:50:05.058Z,20.40
2023-03-14T05:52:56.714Z,20.15
2023-03-14T05:55:46.104Z,29.02
2023-03-14T05:58:42.579Z,20.73
2023-03-14T06:01:35.795Z,20.15
2023-03-14T06:04:14.271Z,15.57
2023-03-14T06:06:45.984Z,17.35
2023-03-14T06:09:18.234Z,19.40
2023-03-14T06:11:48.820Z,20.20
2023-03-14T06:14:20.668Z,12.90
2023-03-14T06:16:53.207Z,18.40
2023-03-14T06:19:27.502Z,19.15
2023-03-14T06:21:59.151Z,14.45
2023-03-14T06:24:30.235Z,22.15
2023-03-14T06:27:01.411Z,20.05
2023-03-14T06:29:32.725Z,12.90
2023-03-14T06:32:03.957Z,10.73
2023-03-14T06:34:38.221Z,14.38
2023-03-14T06:37:09.315Z,16.08
2023-03-14T06:39:43.091Z,16.85
2023-03-14T06:42:22.822Z,23.17
2023-03-14T06:44:54.370Z,17.48
2023-03-14T06:47:25.322Z,14.05
2023-03-14T06:49:56.102Z,17.85
2023-03-14T06:52:27.960Z,14.95
2023-03-14T06:54:58.830Z,16.20
2023-03-14T06:57:30.368Z,18.05
2023-03-14T07:00:02.403Z,17.50
2023-03-14T07:02:42.389Z,14.07
2023-03-14T07:05:25.491Z,20.48
2023-03-14T07:07:56.872Z,14.57
2023-03-14T07:10:27.700Z,15.48
2023-03-14T07:12:58.599Z,8.93
2023-03-14T07:15:32.830Z,13.45
2023-03-14T07:18:08.108Z,13.82
2023-03-14T07:20:38.428Z,14.00
2023-03-14T07:23:10.032Z,12.70
2023-03-14T07:25:44.859Z,15.15
2023-03-14T07:28:16.361Z,11.48
2023-03-14T07:30:49.850Z,20.17
2023-03-14T07:33:25.727Z,14.52
2023-03-14T07:35:56.428Z,14.95
2023-03-14T07:38:26.820Z,14.38
2023-03-14T07:41:21.096Z,13.75
2023-03-14T07:44:29.108Z,12.65
2023-03-14T07:46:59.950Z,15.68
2023-03-14T07:49:39.027Z,13.70
2023-03-14T07:52:09.965Z,15.40
2023-03-14T07:54:40.398Z,19.05
2023-03-14T07:57:10.752Z,15.00
2023-03-14T07:59:41.504Z,12.23
2023-03-14T08:02:15.024Z,13.98
2023-03-14T08:04:45.959Z,14.73
2023-03-14T08:07:17.809Z,18.90
2023-03-14T08:09:51.302Z,16.45
2023-03-14T08:12:22.164Z,15.07
2023-03-14T08:14:53.353Z,11.68
2023-03-14T08:17:25.609Z,22.35
2023-03-14T08:19:57.021Z,12.35
2023-03-14T08:22:30.279Z,12.25
2023-03-14T08:25:00.581Z,10.57
2023-03-14T08:27:31.765Z,9.05
2023-03-14T08:30:03.783Z,15.15
2023-03-14T08:32:35.341Z,13.55
2023-03-14T08:35:07.456Z,13.88
2023-03-14T08:37:39.096Z,14.65
2023-03-14T08:40:11.980Z,14.13
2023-03-14T08:42:43.526Z,15.18
2023-03-14T08:45:16.877Z,13.27
2023-03-14T08:47:48.196Z,16.90
2023-03-14T08:50:18.972Z,14.68
2023-03-14T08:52:51.927Z,22.67
2023-03-14T08:55:26.341Z,14.40
2023-03-14T08:57:57.512Z,13.07
2023-03-14T09:00:28.209Z,13.48
2023-03-14T09:02:59.279Z,9.48
2023-03-14T09:05:30.463Z,12.05
2023-03-14T09:08:01.057Z,18.05
2023-03-14T09:10:32.261Z,11.55
2023-03-14T09:13:02.888Z,17.73
2023-03-14T09:15:34.793Z,16.15
2023-03-14T09:18:06.475Z,11.57
2023-03-14T09:20:38.349Z,13.43
2023-03-14T09:23:11.205Z,17.67
2023-03-14T09:25:41.991Z,18.73
2023-03-14T09:28:13.205Z,16.50
2023-03-14T09:30:43.786Z,14.13
2023-03-14T09:33:17.794Z,14.48
2023-03-14T09:35:48.637Z,15.02
2023-03-14T09:38:19.193Z,11.32
2023-03-14T09:40:50.989Z,19.42
2023-03-14T09:43:23.609Z,10.93
2023-03-14T09:45:55.308Z,14.77
2023-03-14T09:48:30.457Z,13.70
2023-03-14T09:51:04.592Z,13.60
2023-03-14T09:53:47.522Z,12.52
2023-03-14T09:56:31.409Z,11.85
2023-03-14T09:59:08.014Z,10.55
2023-03-14T10:01:39.014Z,13.57
2023-03-14T10:04:15.578Z,12.80
2023-03-14T10:06:50.268Z,11.18
2023-03-14T10:09:28.179Z,11.13
2023-03-14T10:12:11.233Z,10.85
2023-03-14T10:14:49.625Z,14.70
2023-03-14T10:17:22.304Z,15.52
2023-03-14T10:20:01.921Z,19.50
2023-03-14T10:22:34.211Z,12.00
2023-03-14T10:25:09.386Z,17.70
2023-03-14T10:27:39.780Z,16.08
2023-03-14T10:30:31.093Z,15.40
2023-03-14T10:33:14.913Z,19.13
2023-03-14T10:35:46.218Z,13.90
2023-03-14T10:38:21.569Z,14.60
2023-03-14T10:40:56.131Z,23.00
2023-03-14T10:43:29.163Z,14.63
2023-03-14T10:46:03.480Z,14.50
2023-03-14T10:48:43.992Z,55.92
2023-03-14T10:51:20.419Z,63.67
2023-03-14T10:54:03.329Z,26.85
2023-03-14T10:56:39.228Z,29.55
2023-03-14T10:59:18.462Z,18.25
2023-03-14T11:01:57.467Z,26.67
2023-03-14T11:04:50.086Z,30.60
2023-03-14T11:07:31.443Z,15.75
2023-03-14T11:10:05.889Z,21.20
2023-03-14T11:13:04.454Z,19.23
2023-03-14T11:16:05.218Z,12.35
2023-03-14T11:18:59.126Z,26.75
2023-03-14T11:21:52.949Z,34.10
2023-03-14T11:24:40.524Z,24.42
2023-03-14T11:27:21.058Z,45.90
2023-03-14T11:30:03.015Z,23.45
2023-03-14T11:32:40.281Z,72.10
2023-03-14T11:35:30.906Z,73.47
2023-03-14T11:38:27.812Z,31.48
2023-03-14T11:41:02.782Z,33.08
2023-03-14T11:43:39.083Z,84.97
2023-03-14T11:46:42.407Z,45.50
2023-03-14T11:49:34.521Z,32.38
2023-03-14T11:52:23.723Z,33.33
2023-03-14T11:55:01.497Z,66.18
2023-03-14T11:57:32.784Z,39.83
2023-03-14T12:00:17.119Z,36.75
2023-03-14T12:03:02.865Z,29.08
2023-03-14T12:05:33.573Z,19.63
2023-03-14T12:08:31.214Z,17.70
2023-03-14T12:11:05.699Z,16.75
2023-03-14T12:13:38.800Z,12.40
2023-03-14T12:16:27.390Z,16.35
2023-03-14T12:19:00.710Z,14.27
2023-03-14T12:22:01.653Z,18.73
2023-03-14T12:24:34.703Z,19.50
2023-03-14T12:27:08.850Z,12.55
2023-03-14T12:30:03.552Z,18.58
2023-03-14T12:32:34.874Z,21.33
2023-03-14T12:35:41.262Z,15.05
2023-03-14T12:38:32.594Z,17.00
2023-03-14T12:41:20.520Z,15.07
2023-03-14T12:43:51.423Z,12.80
2023-03-14T12:46:30.855Z,15.38
2023-03-14T12:49:04.680Z,15.75
2023-03-14T12:51:45.372Z,18.20
2023-03-14T12:55:03.030Z,13.48
2023-03-14T12:57:40.630Z,11.73
2023-03-14T13:00:22.208Z,11.40
2023-03-14T13:02:53.321Z,13.82
2023-03-14T13:05:28.300Z,17.08
2023-03-14T13:08:02.372Z,14.75
2023-03-14T13:10:38.199Z,14.32
2023-03-14T13:13:27.744Z,15.85
2023-03-14T13:16:05.803Z,14.75
2023-03-14T13:18:42.666Z,21.70
2023-03-14T13:21:21.493Z,11.90
2023-03-14T13:24:04.972Z,14.05
2023-03-14T13:26:37.092Z,16.15
2023-03-14T13:29:25.291Z,15.40
2023-03-14T13:32:01.587Z,17.65
2023-03-14T13:34:34.908Z,14.35
2023-03-14T13:37:05.886Z,15.50
2023-03-14T13:39:36.917Z,14.95
2023-03-14T13:42:07.975Z,17.70
2023-03-14T13:44:42.080Z,21.85
2023-03-14T13:47:26.063Z,18.30
2023-03-14T13:49:57.034Z,20.20
2023-03-14T13:52:38.275Z,16.23
2023-03-14T13:55:18.588Z,16.35
2023-03-14T13:58:00.144Z,24.35
2023-03-14T14:00:31.821Z,16.77
2023-03-14T14:03:03.136Z,19.35
2023-03-14T14:05:39.467Z,28.33
2023-03-14T14:08:12.588Z,16.70
2023-03-14T14:10:43.150Z,22.48
2023-03-14T14:13:18.698Z,18.65
2023-03-14T14:15:51.955Z,19.30
2023-03-14T14:18:25.566Z,25.38
2023-03-14T14:20:56.693Z,27.58
2023-03-14T14:23:30.677Z,16.92
2023-03-14T14:26:01.743Z,18.05
2023-03-14T14:28:34.784Z,26.20
2023-03-14T14:31:13.850Z,21.40
2023-03-14T14:33:56.913Z,20.48
2023-03-14T14:36:33.469Z,19.73
2023-03-14T14:39:26.626Z,24.80
2023-03-14T14:41:57.626Z,20.05
2023-03-14T14:44:33.667Z,22.15
2023-03-14T14:47:06.367Z,14.40
2023-03-14T14:49:37.223Z,18.80
2023-03-14T14:52:19.863Z,15.20
2023-03-14T14:54:59.166Z,23.80
2023-03-14T14:57:42.298Z,18.00
2023-03-14T15:00:27.427Z,18.05
2023-03-14T15:03:01.280Z,21.80
2023-03-14T15:05:36.558Z,20.35
2023-03-14T15:08:12.689Z,17.33
2023-03-14T15:10:43.120Z,20.10
2023-03-14T15:13:14.533Z,17.50
2023-03-14T15:15:45.628Z,14.18
2023-03-14T15:18:20.674Z,18.20
2023-03-14T15:20:51.582Z,15.63
2023-03-14T15:23:23.294Z,14.20
2023-03-14T15:25:56.413Z,17.38
2023-03-14T15:28:29.469Z,18.17
2023-03-14T15:31:02.037Z,18.30
2023-03-14T15:33:32.460Z,12.75
2023-03-14T15:36:03.233Z,10.95
2023-03-14T15:38:33.590Z,18.67
2023-03-14T15:41:03.973Z,14.75
2023-03-14T15:43:34.538Z,14.15
2023-03-14T15:46:04.957Z,13.70
2023-03-14T15:48:36.051Z,16.17
2023-03-14T15:51:06.432Z,14.07
2023-03-14T15:53:39.869Z,14.45
2023-03-14T15:56:15.586Z,16.02
2023-03-14T15:58:48.469Z,15.75
2023-03-14T16:01:19.463Z,19.27
2023-03-14T16:03:51.023Z,18.15
2023-03-14T16:06:22.081Z,14.10
2023-03-14T16:08:54.798Z,16.63
2023-03-14T16:11:25.221Z,12.90
2023-03-14T16:13:58.704Z,17.08
2023-03-14T16:16:30.807Z,15.95
2023-03-14T16:19:03.601Z,14.55
2023-03-14T16:21:35.125Z,13.43
2023-03-14T16:24:07.943Z,15.05
2023-03-14T16:26:38.286Z,17.00
2023-03-14T16:29:08.523Z,14.43
2023-03-14T16:31:43.987Z,12.85
2023-03-14T16:34:15.361Z,17.38
2023-03-14T16:36:45.718Z,14.48
2023-03-14T16:39:16.443Z,20.27
2023-03-14T16:41:47.879Z,13.50
2023-03-14T16:44:18.147Z,21.08
2023-03-14T16:46:49.416Z,25.45
2023-03-14T16:49:21.897Z,28.75
2023-03-14T16:51:52.477Z,31.10
2023-03-14T16:54:25.563Z,28.67
2023-03-14T16:56:56.398Z,29.15
2023-03-14T16:59:29.845Z,24.27
2023-03-14T17:02:00.443Z,22.55
2023-03-14T17:04:31.053Z,30.65
2023-03-14T17:07:02.205Z,22.40
2023-03-14T17:09:33.034Z,27.42
2023-03-14T17:12:04.228Z,26.05
2023-03-14T17:14:34.867Z,24.55
2023-03-14T17:17:08.487Z,29.10
2023-03-14T17:19:39.112Z,21.33
2023-03-14T17:22:22.332Z,27.10
2023-03-14T17:24:53.824Z,27.95
2023-03-14T17:27:24.227Z,33.55
2023-03-14T17:29:56.026Z,26.00
2023-03-14T17:32:27.653Z,20.52
2023-03-14T17:34:58.695Z,24.42
2023-03-14T17:37:31.117Z,21.20
2023-03-14T17:40:04.261Z,20.58
2023-03-14T17:42:34.565Z,22.80
2023-03-14T17:45:08.587Z,23.90
2023-03-14T17:47:40.733Z,28.42
2023-03-14T17:50:12.124Z,20.15
2023-03-14T17:52:42.956Z,22.45
2023-03-14T17:55:15.733Z,21.80
2023-03-14T17:57:48.094Z,20.55
2023-03-14T18:00:19.001Z,23.42
2023-03-14T18:02:49.512Z,23.20
2023-03-14T18:05:20.484Z,19.58
2023-03-14T18:07:50.793Z,20.08
2023-03-14T18:10:22.420Z,19.75
2023-03-14T18:12:53.675Z,21.42
2023-03-14T18:15:23.885Z,18.42
2023-03-14T18:17:56.644Z,21.90
2023-03-14T18:20:27.538Z,17.02
2023-03-14T18:23:02.592Z,26.35
2023-03-14T18:25:33.411Z,24.40
2023-03-14T18:28:03.764Z,20.48
2023-03-14T18:30:34.608Z,28.02
2023-03-14T18:33:05.500Z,25.38
2023-03-14T18:35:35.985Z,29.70
2023-03-14T18:38:06.678Z,23.02
2023-03-14T18:40:40.642Z,29.25
2023-03-14T18:43:11.956Z,23.88
2023-03-14T18:45:42.970Z,24.58
2023-03-14T18:48:13.946Z,27.73
2023-03-14T18:50:44.641Z,22.88
2023-03-14T18:53:15.882Z,26.55
2023-03-14T18:55:46.184Z,22.85
2023-03-14T18:58:16.383Z,24.67
2023-03-14T19:00:49.010Z,27.38
2023-03-14T19:03:20.086Z,23.70
2023-03-14T19:05:50.297Z,22.30
2023-03-14T19:08:20.531Z,32.22
2023-03-14T19:10:54.446Z,24.27
2023-03-14T19:13:24.871Z,24.20
2023-03-14T19:15:55.989Z,30.55
2023-03-14T19:18:27.900Z,28.83
2023-03-14T19:21:04.590Z,21.75
2023-03-14T19:23:37.272Z,27.92
2023-03-14T19:26:08.841Z,24.40
2023-03-14T19:28:39.712Z,30.48
2023-03-14T19:31:11.363Z,25.42
2023-03-14T19:33:41.654Z,24.15
2023-03-14T19:36:26.744Z,25.38
2023-03-14T19:38:57.705Z,24.38
2023-03-14T19:41:31.026Z,24.08
2023-03-14T19:44:06.357Z,23.60
2023-03-14T19:46:37.560Z,30.77
2023-03-14T19:49:12.491Z,38.03
2023-03-14T19:51:45.852Z,29.58
2023-03-14T19:54:16.913Z,28.35
2023-03-14T19:56:47.708Z,32.38
2023-03-14T19:59:18.333Z,30.20
2023-03-14T20:01:49.826Z,33.67
2023-03-14T20:04:20.220Z,27.23
2023-03-14T20:06:51.290Z,27.83
2023-03-14T20:09:22.797Z,27.33
2023-03-14T20:11:53.770Z,28.80
2023-03-14T20:14:24.392Z,32.72
2023-03-14T20:16:55.376Z,33.50
2023-03-14T20:19:26.180Z,34.97
2023-03-14T20:21:57.431Z,35.10
2023-03-14T20:24:28.005Z,32.03
2023-03-14T20:26:58.692Z,30.17
2023-03-14T20:29:31.673Z,33.00
2023-03-14T20:32:02.667Z,32.10
2023-03-14T20:34:37.196Z,34.45
2023-03-14T20:37:10.432Z,34.47
2023-03-14T20:39:41.396Z,35.33
2023-03-14T20:42:11.713Z,30.08
2023-03-14T20:44:41.946Z,33.33
2023-03-14T20:47:15.374Z,34.70
2023-03-14T20:49:46.135Z,31.02
2023-03-14T20:52:16.877Z,36.80
2023-03-14T20:54:47.286Z,31.70
2023-03-14T20:57:18.292Z,37.50
2023-03-14T20:59:51.703Z,38.78
2023-03-14T21:02:22.362Z,38.55
2023-03-14T21:04:53.988Z,34.70
2023-03-14T21:07:25.620Z,34.42
2023-03-14T21:09:56.540Z,37.45
2023-03-14T21:12:27.587Z,33.55
2023-03-14T21:14:58.108Z,34.13
2023-03-14T21:17:28.980Z,37.15
2023-03-14T21:20:00.246Z,40.28
2023-03-14T21:22:33.464Z,35.20
2023-03-14T21:25:05.020Z,37.10
2023-03-14T21:27:38.869Z,45.22
2023-03-14T21:30:13.602Z,50.15
2023-03-14T21:32:44.075Z,41.72
2023-03-14T21:35:15.015Z,45.28
2023-03-14T21:37:46.061Z,42.42
2023-03-14T21:40:17.137Z,39.70
2023-03-14T21:42:47.742Z,43.30
2023-03-14T21:45:18.178Z,53.45
2023-03-14T21:47:49.668Z,43.80
2023-03-14T21:50:20.143Z,46.97
2023-03-14T21:52:52.555Z,42.00
2023-03-14T21:55:26.316Z,43.47
2023-03-14T21:57:57.052Z,45.92
2023-03-14T22:00:27.703Z,46.05
2023-03-14T22:03:12.546Z,49.60
2023-03-14T22:05:45.504Z,49.00
2023-03-14T22:08:17.438Z,49.15
2023-03-14T22:10:53.069Z,40.38
2023-03-14T22:13:25.722Z,46.25
2023-03-14T22:15:56.097Z,40.05
2023-03-14T22:18:26.770Z,50.22
2023-03-14T22:20:57.326Z,47.25
2023-03-14T22:23:28.008Z,47.75
2023-03-14T22:25:59.069Z,49.58
2023-03-14T22:28:29.376Z,45.63
2023-03-14T22:31:02.280Z,49.63
2023-03-14T22:33:33.730Z,51.38
2023-03-14T22:36:05.116Z,42.67
2023-03-14T22:38:36.018Z,54.30
2023-03-14T22:41:07.098Z,47.97
2023-03-14T22:43:37.720Z,56.47
2023-03-14T22:46:08.761Z,50.97
2023-03-14T22:48:39.464Z,47.88
2023-03-14T22:51:11.338Z,55.22
2023-03-14T22:53:41.794Z,54.72
2023-03-14T22:56:13.212Z,44.55
2023-03-14T22:58:43.771Z,47.72
2023-03-14T23:01:16.150Z,51.22
2023-03-14T23:03:46.778Z,50.28
2023-03-14T23:06:18.207Z,50.17
2023-03-14T23:08:49.138Z,44.70
2023-03-14T23:11:23.106Z,47.35
2023-03-14T23:13:54.740Z,51.20
2023-03-14T23:16:34.091Z,48.70
2023-03-14T23:19:12.010Z,50.78
2023-03-14T23:21:42.246Z,49.15
2023-03-14T23:24:12.858Z,55.63
2023-03-14T23:26:47.049Z,53.03
2023-03-14T23:29:17.816Z,50.45
2023-03-14T23:31:51.042Z,53.17
2023-03-14T23:34:22.825Z,57.17
2023-03-14T23:36:53.182Z,57.55
2023-03-14T23:39:24.129Z,49.30
2023-03-14T23:41:56.890Z,56.90
2023-03-14T23:44:27.721Z,51.60
2023-03-14T23:46:58.112Z,56.88
2023-03-14T23:49:29.453Z,52.67
2023-03-14T23:52:00.804Z,51.78
2023-03-14T23:54:31.801Z,43.00
2023-03-14T23:57:06.359Z,38.95
2023-03-14T23:59:45.366Z,34.47
